Date,TemperatureHighF,TemperatureAvgF,TemperatureLowF,DewpointHighF,DewpointAvgF,DewpointLowF,HumidityHigh,HumidityAvg,HumidityLow,PressureMaxIn,PressureMinIn,WindSpeedMaxMPH,WindSpeedAvgMPH,GustSpeedMaxMPH,PrecipitationSumIn
2014-1-1,44.5,31.7,19.7,32.0,26.0,19.0,98,80,56,30.33,30.05,6,0,9,0.00
2014-1-2,35.0,22.4,7.5,31.0,19.7,2.0,97,89,78,30.36,29.88,0,0,2,0.00
2014-1-3,20.8,8.5,-6.7,9.0,1.9,-9.0,92,76,45,30.59,30.31,2,0,11,0.00
2014-1-4,38.2,27.0,12.3,28.0,16.4,8.0,82,66,48,30.31,30.08,12,1,17,0.06
2014-1-5,36.8,32.6,16.2,36.0,30.5,14.0,98,92,62,30.11,29.57,9,1,19,1.29
2014-1-6,15.1,-4.0,-9.9,13.0,-9.4,-17.0,90,78,68,30.50,29.87,16,5,20,0.00
2014-1-7,10.6,1.4,-9.1,4.0,-6.0,-15.0,80,71,59,30.60,30.48,11,2,14,0.00
2014-1-8,29.2,19.1,7.6,21.0,12.3,3.0,85,75,61,30.54,30.45,5,1,11,0.00
2014-1-9,35.7,27.5,17.9,32.0,23.9,16.0,97,87,65,30.56,30.32,2,0,6,0.01
2014-1-10,48.4,39.6,32.4,48.0,39.1,32.0,99,97,94,30.31,29.73,3,0,8,0.29
2014-1-11,50.1,42.9,33.6,50.0,41.0,32.0,98,92,84,29.83,29.50,11,3,22,0.51
2014-1-12,46.0,37.9,31.9,35.0,32.3,29.0,95,81,62,30.10,29.84,7,2,14,0.00
2014-1-13,50.5,46.8,41.9,46.0,39.9,33.0,97,78,61,29.90,29.71,8,2,17,0.07
2014-1-14,47.0,36.3,23.8,39.0,30.6,20.0,99,81,54,29.98,29.78,14,2,22,0.00
2014-1-15,28.8,24.4,17.7,22.0,18.5,15.0,93,78,65,30.15,29.96,8,2,13,0.00
2014-1-16,31.8,23.9,14.9,27.0,19.8,12.0,90,84,76,30.11,29.79,6,1,11,0.00
2014-1-17,30.7,18.8,6.2,30.0,15.7,3.0,98,87,69,30.13,29.80,8,1,15,0.00
2014-1-18,26.3,19.3,9.9,24.0,15.4,7.0,93,85,65,30.12,29.84,4,1,9,0.00
2014-1-19,34.6,28.2,19.3,28.0,22.9,17.0,96,81,67,30.04,29.79,7,2,17,0.00
2014-1-20,41.5,35.5,31.0,31.0,27.9,25.0,95,74,64,29.95,29.74,13,2,14,0.09
2014-1-21,31.0,14.2,-4.0,30.0,8.2,-7.0,97,78,49,30.27,29.83,9,2,16,0.00
2014-1-22,16.0,4.4,-9.6,13.0,-1.1,-13.0,90,79,60,30.27,30.11,8,1,16,0.00
2014-1-23,11.2,3.9,-1.9,3.0,-3.1,-8.0,85,73,61,30.71,30.20,12,3,19,0.00
2014-1-24,21.1,7.7,-6.9,9.0,-1.6,-10.0,87,68,48,30.71,29.95,11,3,20,0.00
2014-1-25,34.5,21.3,8.0,27.0,14.6,0.0,93,76,46,29.98,29.60,13,4,23,0.00
2014-1-26,43.9,26.6,3.5,32.0,16.0,-2.0,79,65,49,29.99,29.63,12,2,15,0.02
2014-1-27,42.1,10.2,-1.5,33.0,0.4,-9.0,88,65,48,30.50,29.65,11,3,23,0.00
2014-1-28,8.1,-2.9,-13.3,-5.0,-10.1,-17.0,87,73,53,30.58,30.44,4,0,8,0.00
2014-1-29,22.9,7.8,-8.6,6.0,-1.5,-12.0,87,68,47,30.46,30.36,7,1,14,0.00
2014-1-30,33.2,22.8,10.4,10.0,5.7,1.0,72,50,35,30.35,29.97,8,2,12,0.00
2014-1-31,40.6,34.9,29.5,30.0,18.3,10.0,88,53,35,30.19,30.06,5,0,9,0.01
2014-2-1,51.5,41.8,32.5,44.0,34.2,28.0,98,77,48,30.11,29.86,5,1,12,0.24
2014-2-2,39.4,30.6,25.6,38.0,28.6,23.0,97,92,87,30.26,29.98,5,1,8,0.18
2014-2-3,32.3,25.5,20.8,23.0,18.7,16.0,88,76,57,30.41,30.20,5,1,8,0.00
2014-2-4,29.3,24.0,19.9,24.0,20.3,17.0,95,85,76,30.45,29.85,12,2,14,0.00
2014-2-5,28.3,24.9,21.5,28.0,22.3,17.0,97,89,81,30.45,29.78,6,1,11,0.00
2014-2-6,21.2,15.8,4.2,17.0,10.6,-2.0,91,80,69,30.53,30.44,7,1,10,0.00
2014-2-7,17.4,5.3,-7.1,2.0,-2.7,-10.0,89,71,49,30.58,30.45,2,0,9,0.00
2014-2-8,27.3,18.6,6.1,23.0,12.2,1.0,91,76,63,30.46,30.21,2,0,5,0.00
2014-2-9,27.3,23.6,14.7,25.0,18.9,9.0,96,83,68,30.31,30.14,9,2,16,0.00
2014-2-10,18.9,10.1,1.2,9.0,4.8,-3.0,90,79,64,30.49,30.31,5,0,10,0.00
2014-2-11,22.8,8.4,-5.8,7.0,0.8,-9.0,90,73,47,30.59,30.48,3,0,5,0.00
2014-2-12,34.2,17.0,1.4,14.0,6.9,-2.0,89,67,39,30.49,30.09,3,0,6,0.02
2014-2-13,42.7,26.8,9.4,19.0,11.9,6.0,86,57,28,30.07,29.69,4,1,11,0.13
2014-2-14,32.3,26.3,18.8,26.0,21.3,16.0,94,82,57,29.87,29.67,6,1,13,0.00
2014-2-15,27.7,21.0,15.5,20.0,15.2,13.0,91,79,63,30.18,29.87,6,1,9,0.00
2014-2-16,29.7,24.2,12.7,24.0,20.0,11.0,94,84,70,30.36,30.02,7,1,14,0.00
2014-2-17,36.4,25.9,11.2,35.0,22.3,9.0,97,87,70,30.36,29.79,9,2,21,0.00
2014-2-18,54.5,43.1,32.5,32.0,29.8,27.0,88,62,36,30.16,29.82,12,2,16,0.06
2014-2-19,47.8,42.4,33.2,41.0,34.6,31.0,92,75,56,30.09,29.73,8,2,17,0.00
2014-2-20,64.9,51.9,33.9,58.0,45.7,31.0,93,79,71,30.04,29.49,14,2,21,0.61
2014-2-21,45.7,39.6,35.5,39.0,26.0,18.0,83,61,35,29.99,29.61,17,3,24,0.00
2014-2-22,58.1,45.5,36.0,35.0,28.1,21.0,77,52,34,30.09,29.95,5,2,13,0.00
2014-2-23,37.2,32.1,23.2,33.0,25.8,14.0,96,78,51,30.26,30.04,4,0,13,0.01
2014-2-24,32.7,26.3,19.6,17.0,13.7,10.0,80,60,42,30.35,30.23,8,2,18,0.00
2014-2-25,29.1,25.2,21.2,19.0,17.1,15.0,84,72,61,30.26,30.16,9,2,12,0.00
2014-2-26,22.8,16.4,7.8,18.0,4.9,1.0,82,62,44,30.28,29.96,9,3,15,0.00
2014-2-27,22.9,18.3,10.9,11.0,3.1,-3.0,71,53,34,30.24,29.84,12,4,22,0.00
2014-2-28,37.1,21.4,8.7,13.0,6.8,2.0,79,57,30,30.32,30.14,6,1,8,0.00
2014-3-1,52.9,40.3,27.1,35.0,26.0,11.0,79,57,43,30.22,30.13,6,1,13,0.00
2014-3-2,33.9,24.3,15.4,28.0,21.8,13.0,94,90,79,30.31,30.16,6,2,9,0.01
2014-3-3,21.0,14.4,8.4,13.0,5.1,1.0,90,68,43,30.50,30.28,8,2,12,0.00
2014-3-4,35.1,19.5,5.4,17.0,9.4,1.0,90,67,41,30.46,30.25,4,0,6,0.01
2014-3-5,35.7,25.6,15.3,21.0,17.0,13.0,92,72,49,30.40,30.25,7,2,12,0.02
2014-3-6,44.7,30.5,19.0,26.0,20.2,14.0,88,67,44,30.39,30.14,6,2,11,0.00
2014-3-7,57.7,38.5,22.3,37.0,28.9,21.0,96,72,43,30.14,29.98,5,0,9,0.00
2014-3-8,53.4,38.9,29.0,40.0,33.5,27.0,96,82,58,30.23,30.00,9,1,12,0.00
2014-3-9,45.7,35.2,26.8,30.0,25.8,23.0,90,70,45,30.32,30.06,8,1,10,0.00
2014-3-10,61.7,48.3,37.2,42.0,36.7,30.0,87,66,46,30.06,29.76,11,3,15,0.00
2014-3-11,73.4,58.8,45.4,48.0,42.9,36.0,89,59,29,29.78,29.58,10,2,12,0.02
2014-3-12,57.2,38.6,21.4,53.0,35.0,12.0,99,87,67,30.06,29.25,12,3,20,0.70
2014-3-13,37.2,26.8,15.1,20.0,15.3,10.0,86,64,45,30.28,30.06,6,1,12,0.00
2014-3-14,61.9,48.4,34.5,42.0,30.6,20.0,70,52,34,30.13,29.77,14,4,25,0.02
2014-3-15,57.4,47.3,32.9,40.0,32.4,27.0,91,59,35,30.11,29.92,8,2,16,0.00
2014-3-16,40.6,30.6,23.8,32.0,20.6,11.0,80,67,51,30.16,30.02,13,6,19,0.00
2014-3-17,40.2,29.5,21.3,28.0,19.4,13.0,75,67,55,30.04,29.88,7,1,12,0.00
2014-3-18,55.8,40.6,25.3,42.0,32.7,23.0,92,75,53,30.00,29.84,9,1,11,0.00
2014-3-19,53.2,46.4,37.4,49.0,42.7,33.0,96,87,76,30.06,29.77,14,4,23,0.18
2014-3-20,52.6,42.0,29.2,35.0,30.7,25.0,85,66,45,30.15,30.03,10,2,14,0.00
2014-3-21,69.0,50.8,31.5,35.0,32.9,30.0,94,57,27,30.07,29.83,9,2,16,0.00
2014-3-22,55.4,44.9,37.9,38.0,32.7,30.0,83,64,39,30.21,29.81,9,2,19,0.00
2014-3-23,38.8,33.4,26.4,30.0,21.6,16.0,86,63,44,30.38,30.20,7,1,13,0.00
2014-3-24,40.4,29.5,19.0,17.0,14.9,12.0,81,57,35,30.41,30.16,6,1,11,0.00
2014-3-25,33.5,28.4,22.9,28.0,19.6,13.0,91,70,43,30.26,30.05,13,2,21,0.00
2014-3-26,41.5,28.2,13.9,17.0,12.7,9.0,85,55,31,30.44,30.26,5,1,12,0.00
2014-3-27,56.9,43.1,28.8,40.0,25.0,15.0,65,50,34,30.27,29.80,10,2,18,0.10
2014-3-28,53.6,49.4,42.0,51.0,43.7,38.0,92,81,66,30.11,29.73,15,4,20,0.35
2014-3-29,42.4,38.8,36.0,39.0,36.4,33.0,96,90,84,30.18,29.96,9,2,14,1.02
2014-3-30,53.7,39.7,28.7,33.0,29.9,26.0,93,71,43,30.28,30.18,6,1,12,0.00
2014-3-31,68.0,49.5,29.8,37.0,32.6,29.0,99,60,26,30.23,30.00,6,1,10,0.00
2014-4-1,72.1,62.3,52.4,46.0,36.7,28.0,69,41,20,30.07,29.90,18,3,23,0.01
2014-4-2,57.7,49.6,44.5,51.0,45.9,41.0,98,87,70,30.15,30.00,4,1,6,0.73
2014-4-3,65.9,56.5,50.9,61.0,55.2,50.0,99,95,82,30.04,29.66,7,1,15,1.50
2014-4-4,59.5,54.4,40.4,58.0,52.4,31.0,99,93,69,30.02,29.50,8,3,26,1.24
2014-4-5,51.0,41.4,34.8,36.0,31.1,28.0,89,68,50,30.23,30.02,9,2,23,0.00
2014-4-6,58.0,44.0,28.3,36.0,31.5,27.0,96,66,35,30.22,29.97,6,1,10,0.00
2014-4-7,53.1,48.2,42.8,53.0,43.1,35.0,98,84,60,29.96,29.38,6,1,13,0.73
2014-4-8,58.5,48.0,40.6,49.0,43.6,40.0,97,85,66,29.87,29.59,6,2,15,0.05
2014-4-9,61.3,49.4,36.8,41.0,37.1,34.0,94,66,40,30.08,29.88,6,1,12,0.00
2014-4-10,75.9,60.0,41.9,46.0,40.7,34.0,85,52,32,30.05,29.83,13,3,22,0.00
2014-4-11,70.8,60.6,45.3,55.0,48.0,36.0,95,66,34,30.09,29.91,7,1,15,0.19
2014-4-12,77.7,61.4,39.9,57.0,49.3,38.0,98,68,43,30.14,29.86,8,2,17,0.00
2014-4-13,80.2,72.2,65.1,60.0,55.0,48.0,72,56,41,29.90,29.69,15,4,20,0.00
2014-4-14,72.2,58.5,34.9,59.0,51.8,33.0,95,81,45,29.83,29.61,11,4,22,0.57
2014-4-15,38.8,33.1,25.7,33.0,24.6,18.0,96,73,47,30.30,29.83,10,2,16,0.07
2014-4-16,50.9,36.5,23.5,27.0,21.4,16.0,86,58,33,30.45,30.28,7,1,12,0.00
2014-4-17,67.2,50.8,34.3,41.0,33.3,25.0,81,54,30,30.37,30.27,11,1,12,0.00
2014-4-18,70.6,55.0,37.5,46.0,40.1,36.0,98,63,32,30.31,30.20,6,0,10,0.00
2014-4-19,68.4,57.4,44.9,46.0,39.9,36.0,78,54,35,30.32,30.23,7,2,11,0.00
2014-4-20,77.2,59.7,42.6,47.0,38.1,35.0,76,48,23,30.28,30.11,5,1,7,0.00
2014-4-21,76.1,61.7,44.3,56.0,47.5,41.0,97,64,36,30.11,29.87,8,1,14,0.01
2014-4-22,64.3,58.5,43.4,58.0,46.1,32.0,93,67,37,29.98,29.78,12,2,16,0.00
2014-4-23,60.9,48.1,36.0,36.0,33.0,31.0,81,59,34,30.13,29.98,4,1,8,0.00
2014-4-24,68.3,56.2,48.1,41.0,36.8,33.0,65,50,33,30.11,29.77,5,1,12,0.00
2014-4-25,66.5,57.9,48.3,56.0,47.2,32.0,96,71,35,29.92,29.60,14,1,18,0.30
2014-4-26,79.7,64.5,48.6,50.0,45.7,42.0,83,53,29,29.95,29.88,11,2,15,0.00
2014-4-27,74.7,61.1,47.9,51.0,44.6,39.0,72,56,41,30.01,29.84,9,2,10,0.00
2014-4-28,70.7,60.9,51.5,64.0,54.4,44.0,97,80,54,29.85,29.61,9,1,13,0.86
2014-4-29,76.2,62.9,53.0,62.0,55.4,46.0,99,79,41,29.81,29.52,11,2,22,0.21
2014-4-30,68.8,57.2,48.9,56.0,50.5,44.0,98,80,51,29.91,29.75,7,2,18,0.00
2014-5-1,58.2,50.3,40.5,44.0,39.5,37.0,92,68,48,29.94,29.87,13,2,25,0.00
2014-5-2,57.7,50.9,45.3,44.0,41.9,39.0,83,72,58,29.94,29.88,8,2,16,0.00
2014-5-3,67.7,55.9,43.7,46.0,40.3,32.0,89,60,28,29.95,29.82,8,2,21,0.00
2014-5-4,72.4,60.9,47.8,47.0,41.7,33.0,82,51,35,30.03,29.92,9,2,12,0.00
2014-5-5,73.4,57.8,46.6,52.0,41.6,29.0,67,56,42,30.03,29.81,6,1,9,0.00
2014-5-6,74.9,61.6,49.2,54.0,45.8,39.0,71,57,43,29.97,29.89,5,1,11,0.00
2014-5-7,84.7,70.2,52.0,62.0,55.2,48.0,92,61,40,29.97,29.88,7,1,14,0.00
2014-5-8,85.4,74.6,60.8,66.0,59.9,55.0,86,61,45,30.03,29.93,12,2,15,0.00
2014-5-9,75.0,70.5,62.8,65.0,59.5,54.0,84,69,57,29.96,29.82,11,2,15,0.01
2014-5-10,74.8,65.2,59.7,65.0,61.6,58.0,98,88,66,30.01,29.91,4,0,8,0.37
2014-5-11,83.7,68.3,54.8,69.0,62.4,55.0,100,83,56,30.15,29.96,6,1,14,0.22
2014-5-12,84.7,71.7,62.7,73.0,66.6,62.0,96,84,59,30.06,29.97,8,1,15,0.17
2014-5-13,85.3,73.2,64.1,71.0,66.1,63.0,97,80,50,30.08,29.96,7,1,18,0.07
2014-5-14,69.4,61.8,55.6,66.0,60.9,55.0,99,97,88,30.09,29.83,3,1,7,0.89
2014-5-15,64.7,52.2,39.7,64.0,49.3,39.0,98,90,75,30.09,29.74,8,2,12,0.45
2014-5-16,56.5,46.8,37.9,47.0,41.6,37.0,99,84,55,30.09,29.98,9,1,14,0.22
2014-5-17,57.0,47.9,39.4,43.0,40.9,37.0,98,79,50,30.27,30.07,7,1,9,0.01
2014-5-18,66.2,49.9,34.5,45.0,38.6,34.0,99,70,36,30.34,30.25,3,0,7,0.00
2014-5-19,72.7,56.1,38.8,48.0,43.1,38.0,99,67,35,30.32,30.11,4,1,7,0.00
2014-5-20,79.7,66.9,57.0,66.0,57.2,47.0,92,71,59,30.14,29.95,5,1,14,0.00
2014-5-21,83.9,69.7,61.6,71.0,63.8,59.0,97,82,64,29.97,29.83,5,1,15,0.46
2014-5-22,78.6,69.3,61.0,66.0,59.2,51.0,98,74,41,30.07,29.91,8,1,11,0.00
2014-5-23,74.6,63.2,50.5,54.0,50.0,47.0,93,65,40,30.15,30.06,6,1,10,0.00
2014-5-24,77.9,62.8,47.1,55.0,50.9,46.0,99,70,38,30.23,30.12,3,0,4,0.00
2014-5-25,81.7,66.9,53.2,58.0,54.8,52.0,98,70,36,30.18,30.07,3,0,6,0.00
2014-5-26,86.7,70.9,54.8,69.0,61.9,54.0,99,76,51,30.13,29.98,5,1,11,0.00
2014-5-27,86.5,75.8,65.5,70.0,66.4,64.0,93,74,48,30.03,29.91,8,1,13,0.00
2014-5-28,85.5,74.3,65.1,68.0,65.5,63.0,94,75,50,30.00,29.91,3,1,9,0.00
2014-5-29,82.6,72.2,62.6,71.0,67.2,62.0,98,85,65,30.05,29.96,4,0,6,0.00
2014-5-30,84.6,71.7,62.4,67.0,59.2,51.0,98,68,32,30.13,30.05,4,1,7,0.00
2014-5-31,85.6,70.7,56.8,61.0,56.1,52.0,92,64,32,30.19,30.08,5,0,7,0.00
2014-6-1,89.8,71.2,54.8,69.0,60.6,53.0,97,73,38,30.13,30.00,4,1,13,0.29
2014-6-2,78.8,72.8,67.5,71.0,68.6,67.0,97,87,75,30.08,29.95,17,2,17,1.02
2014-6-3,85.2,74.5,69.5,74.0,70.0,65.0,96,86,65,29.99,29.90,7,1,20,0.07
2014-6-4,81.2,69.9,61.9,75.0,67.0,59.0,100,91,69,29.91,29.68,11,1,16,0.60
2014-6-5,76.9,65.9,56.4,59.0,56.5,53.0,96,74,44,29.96,29.80,4,1,8,0.00
2014-6-6,80.0,65.8,51.8,56.0,53.3,51.0,99,68,37,30.02,29.94,4,0,6,0.00
2014-6-7,82.9,68.3,52.4,59.0,55.6,52.0,99,68,37,30.05,29.80,4,0,7,0.00
2014-6-8,73.7,67.8,60.4,67.0,61.9,57.0,97,82,61,29.97,29.69,8,1,14,0.09
2014-6-9,75.2,66.1,58.6,63.0,60.1,57.0,99,82,59,29.99,29.89,3,0,6,0.00
2014-6-10,76.1,66.6,61.1,70.0,64.5,59.0,98,93,78,29.91,29.77,2,0,6,0.71
2014-6-11,74.7,69.3,65.7,70.0,66.7,65.0,97,91,79,29.80,29.71,4,0,9,0.02
2014-6-12,80.3,70.2,63.2,67.0,64.8,63.0,98,84,62,29.87,29.76,6,1,9,0.00
2014-6-13,76.3,68.3,54.9,66.0,56.7,46.0,88,69,37,30.04,29.82,6,1,10,0.00
2014-6-14,77.8,62.3,44.3,55.0,48.8,42.0,96,64,41,30.15,30.04,3,0,6,0.00
2014-6-15,86.9,70.3,52.6,68.0,58.9,50.0,93,70,43,30.11,29.97,8,1,15,0.00
2014-6-16,87.6,76.5,67.9,75.0,69.8,63.0,97,80,61,30.12,30.02,5,1,9,0.09
2014-6-17,89.5,78.4,66.6,75.0,70.9,66.0,98,79,57,30.08,29.95,10,1,15,0.00
2014-6-18,90.9,79.7,72.0,74.0,70.8,66.0,93,76,52,30.07,29.96,8,1,13,0.00
2014-6-19,87.7,76.3,69.0,77.0,70.2,65.0,94,82,63,30.08,29.98,8,1,11,0.00
2014-6-20,87.2,73.3,67.2,76.0,70.5,66.0,98,91,65,30.05,29.90,7,0,7,0.62
2014-6-21,85.7,75.2,67.9,72.0,68.4,65.0,100,82,50,29.96,29.86,4,0,7,0.01
2014-6-22,87.9,75.2,66.8,76.0,69.2,65.0,97,83,55,29.93,29.83,4,0,9,0.15
2014-6-23,90.9,75.4,66.2,74.0,69.6,66.0,99,84,54,29.92,29.84,8,1,11,0.40
2014-6-24,85.5,73.3,68.5,74.0,70.6,68.0,98,92,67,29.93,29.83,6,0,21,1.71
2014-6-25,85.3,73.7,69.0,73.0,70.0,68.0,99,89,62,29.98,29.86,5,0,9,0.31
2014-6-26,87.0,75.1,64.5,71.0,67.1,64.0,100,79,51,30.03,29.96,3,0,6,0.01
2014-6-27,90.6,76.5,64.0,73.0,68.0,63.0,98,77,47,30.06,29.99,2,0,8,0.00
2014-6-28,86.1,76.2,68.9,74.0,70.6,67.0,97,83,62,30.12,30.03,4,0,11,0.19
2014-6-29,86.0,76.3,70.0,76.0,72.0,69.0,99,87,69,30.08,29.97,8,1,12,0.01
2014-6-30,86.6,75.6,67.1,79.0,72.6,67.0,99,90,76,30.01,29.79,6,0,9,0.06
2014-7-1,90.6,78.3,67.5,78.0,72.9,65.0,99,84,61,29.84,29.74,7,1,11,0.29
2014-7-2,82.3,72.3,64.5,74.0,67.3,62.0,98,85,64,29.99,29.84,3,1,12,0.17
2014-7-3,74.3,64.8,55.7,63.0,58.3,53.0,97,81,50,30.17,29.98,5,1,11,0.00
2014-7-4,78.5,63.9,48.9,56.0,52.1,48.0,99,70,37,30.30,30.17,6,1,10,0.00
2014-7-5,82.2,66.4,52.0,60.0,55.0,52.0,99,71,38,30.32,30.11,3,0,7,0.00
2014-7-6,82.4,70.9,58.9,66.0,61.3,56.0,93,73,53,30.12,29.91,6,1,11,0.00
2014-7-7,86.0,75.6,69.3,74.0,68.3,62.0,93,78,66,29.91,29.77,8,2,12,0.01
2014-7-8,83.0,74.7,66.2,71.0,68.8,64.0,96,83,62,29.86,29.70,10,2,19,0.06
2014-7-9,83.3,71.8,61.9,66.0,62.9,60.0,98,76,48,30.01,29.86,6,1,9,0.00
2014-7-10,81.3,69.2,58.3,63.0,59.9,58.0,98,75,47,30.15,30.01,4,1,8,0.00
2014-7-11,85.9,70.9,57.2,65.0,60.1,56.0,97,72,40,30.21,30.12,6,0,7,0.00
2014-7-12,83.9,73.2,60.7,73.0,67.1,60.0,98,82,61,30.16,30.01,4,1,8,0.00
2014-7-13,89.3,78.2,71.5,77.0,72.6,69.0,98,83,61,30.01,29.88,6,1,11,0.68
2014-7-14,84.4,72.7,66.0,73.0,69.6,64.0,99,91,65,29.91,29.81,4,1,15,1.12
2014-7-15,71.7,65.2,58.5,66.0,58.0,53.0,98,79,56,29.96,29.82,5,1,14,0.00
2014-7-16,74.3,63.0,53.6,59.0,55.3,51.0,97,78,46,30.04,29.95,6,1,8,0.00
2014-7-17,76.5,62.9,51.3,58.0,53.8,51.0,99,76,45,30.14,30.04,4,1,8,0.00
2014-7-18,75.9,63.0,53.6,63.0,57.8,53.0,98,85,55,30.19,30.11,2,0,5,0.04
2014-7-19,78.8,67.8,61.8,68.0,63.5,61.0,98,87,64,30.10,30.01,1,0,5,0.02
2014-7-20,83.3,69.7,59.8,69.0,64.6,60.0,99,85,59,30.07,30.00,3,0,5,0.00
2014-7-21,87.5,73.4,61.3,70.0,66.3,61.0,100,81,52,30.12,30.04,4,0,5,0.00
2014-7-22,89.9,77.0,65.0,74.0,69.5,65.0,99,80,51,30.10,30.00,5,1,7,0.00
2014-7-23,82.1,72.0,67.9,74.0,69.5,66.0,99,92,73,30.09,29.94,5,1,10,1.52
2014-7-24,75.8,67.2,57.7,66.0,58.8,55.0,94,76,51,30.07,29.98,6,1,9,0.00
2014-7-25,79.0,64.8,52.1,65.0,58.4,52.0,99,82,53,30.12,29.96,3,0,5,0.00
2014-7-26,83.8,72.7,63.8,77.0,68.6,62.0,98,87,72,30.00,29.80,5,0,14,0.13
2014-7-27,83.9,72.8,68.8,78.0,70.0,60.0,99,91,70,29.85,29.67,6,1,15,0.60
2014-7-28,72.3,65.8,56.6,64.0,59.6,51.0,93,81,67,30.02,29.79,4,1,12,0.00
2014-7-29,74.4,61.2,48.8,61.0,54.3,48.0,98,80,56,30.08,30.01,4,1,7,0.00
2014-7-30,78.7,66.2,56.8,65.0,61.3,56.0,98,85,61,30.07,30.02,6,1,13,0.00
2014-7-31,83.6,70.1,59.6,67.0,62.9,59.0,99,80,50,30.09,30.04,5,0,6,0.00
2014-8-1,86.8,70.8,58.9,68.0,63.0,59.0,100,79,39,30.11,30.03,2,0,6,0.00
2014-8-2,81.1,71.0,61.9,66.0,63.2,61.0,97,78,55,30.11,30.03,4,1,9,0.00
2014-8-3,84.8,70.5,58.4,68.0,61.6,55.0,100,77,38,30.16,30.07,6,0,9,0.00
2014-8-4,86.4,70.5,56.5,67.0,61.4,56.0,100,77,42,30.14,30.05,3,0,5,0.00
2014-8-5,81.0,70.8,60.5,70.0,65.5,60.0,100,84,61,30.07,29.99,2,0,5,0.00
2014-8-6,80.7,72.4,63.4,70.0,67.0,63.0,99,84,65,30.03,29.96,4,1,8,0.00
2014-8-7,79.3,69.4,59.4,65.0,61.4,58.0,98,77,54,30.09,30.00,3,0,5,0.00
2014-8-8,74.6,68.5,63.8,68.0,63.7,60.0,95,85,69,30.06,30.00,3,0,5,0.14
2014-8-9,81.9,72.4,63.6,72.0,67.1,61.0,95,84,67,30.03,29.94,4,0,6,0.00
2014-8-10,85.6,75.4,69.6,75.0,71.2,68.0,98,87,69,29.99,29.89,3,0,6,1.87
2014-8-11,84.3,74.4,68.9,75.0,71.5,68.0,99,91,69,29.91,29.77,7,1,10,0.27
2014-8-12,73.5,67.5,61.6,69.0,64.1,59.0,99,89,73,29.96,29.77,6,1,12,0.01
2014-8-13,80.0,66.8,55.4,63.0,58.7,55.0,99,78,45,30.06,29.96,5,1,8,0.00
2014-8-14,79.6,69.7,59.0,67.0,61.2,56.0,93,76,50,30.04,29.96,6,0,10,0.00
2014-8-15,77.7,61.9,47.6,57.0,51.4,45.0,98,73,34,30.09,30.00,3,0,6,0.00
2014-8-16,78.7,65.2,52.0,70.0,60.8,51.0,99,86,70,30.03,29.96,7,0,7,0.00
2014-8-17,78.7,71.8,67.2,72.0,68.6,64.0,96,89,77,29.99,29.87,3,0,5,0.07
2014-8-18,85.4,74.7,69.2,73.0,70.4,68.0,98,87,64,29.87,29.78,3,0,5,0.00
2014-8-19,86.5,74.6,65.9,74.0,70.3,66.0,99,87,62,29.85,29.77,5,0,8,0.01
2014-8-20,83.8,72.0,63.1,74.0,68.9,63.0,99,90,70,30.02,29.81,5,1,14,0.84
2014-8-21,86.9,75.4,68.7,78.0,72.7,68.0,99,92,71,30.06,29.95,3,0,8,0.16
2014-8-22,86.7,76.2,69.9,79.0,73.3,69.0,99,91,71,30.05,29.93,4,0,12,0.17
2014-8-23,89.9,77.6,67.5,78.0,72.9,67.0,100,87,62,29.99,29.89,4,0,6,0.00
2014-8-24,89.6,79.0,72.9,79.0,73.9,72.0,98,85,62,30.01,29.93,3,0,5,0.00
2014-8-25,90.1,77.7,68.1,77.0,72.6,68.0,99,85,63,30.06,30.00,3,0,5,0.00
2014-8-26,91.0,77.9,68.3,77.0,72.1,68.0,99,84,54,30.11,30.01,5,0,8,0.03
2014-8-27,89.0,77.5,68.8,77.0,72.2,69.0,100,85,62,30.08,29.99,6,0,7,0.00
2014-8-28,85.6,74.7,66.2,72.0,67.5,65.0,94,79,59,30.07,29.99,3,0,5,0.00
2014-8-29,89.8,75.5,65.0,76.0,68.1,62.0,91,79,57,30.06,29.95,2,0,7,0.00
2014-8-30,82.0,73.5,66.9,74.0,68.8,65.0,94,85,73,30.04,29.96,6,1,12,0.06
2014-8-31,82.3,73.9,69.8,74.0,71.0,68.0,98,91,72,30.02,29.94,3,0,10,1.49
2014-9-1,84.4,76.4,69.2,76.0,72.8,68.0,99,89,73,29.97,29.87,9,1,15,0.10
2014-9-2,80.2,71.5,65.5,73.0,69.1,65.0,99,92,74,29.99,29.90,4,0,11,1.36
2014-9-3,85.4,71.9,62.7,71.0,65.8,63.0,100,84,50,30.07,29.98,4,0,4,0.01
2014-9-4,88.7,74.6,63.4,74.0,69.2,63.0,100,85,56,30.11,30.02,4,0,7,0.00
2014-9-5,89.4,77.7,68.0,78.0,72.9,68.0,99,86,67,30.11,29.94,7,1,10,0.00
2014-9-6,76.6,68.8,59.0,74.0,66.0,59.0,98,91,81,30.13,29.97,3,1,9,0.00
2014-9-7,75.7,64.1,55.2,61.0,57.1,54.0,98,80,51,30.21,30.10,5,1,11,0.01
2014-9-8,81.5,64.0,52.7,61.0,55.9,52.0,99,79,43,30.14,30.02,3,0,6,0.00
2014-9-9,82.6,65.6,51.7,66.0,59.0,52.0,100,82,46,30.11,29.96,6,0,8,0.00
2014-9-10,81.5,72.9,61.8,74.0,69.5,61.0,98,89,78,29.98,29.72,8,2,18,0.22
2014-9-11,70.6,64.1,58.0,69.0,60.9,55.0,98,89,75,30.16,29.76,4,2,13,0.48
2014-9-12,63.9,59.4,55.7,57.0,54.7,52.0,92,84,72,30.22,30.13,4,1,7,0.00
2014-9-13,64.7,56.1,46.1,56.0,49.6,45.0,96,80,53,30.33,30.14,6,1,10,0.00
2014-9-14,70.9,55.1,43.9,55.0,48.6,43.0,98,81,50,30.33,30.20,2,0,4,0.00
2014-9-15,69.9,56.0,45.4,59.0,52.3,45.0,100,89,59,30.23,30.03,4,0,12,0.35
2014-9-16,59.3,56.5,50.3,57.0,54.0,49.0,98,91,76,30.19,30.09,3,0,6,0.02
2014-9-17,67.4,53.4,42.2,54.0,49.1,42.0,99,87,58,30.12,29.98,2,0,4,0.00
2014-9-18,72.1,57.5,45.9,55.0,50.3,46.0,100,80,47,30.13,30.03,3,0,9,0.00
2014-9-19,75.5,58.9,47.2,58.0,51.6,46.0,99,80,43,30.20,30.07,3,0,7,0.00
2014-9-20,80.9,66.5,53.2,69.0,62.0,52.0,100,87,64,30.08,29.90,6,1,12,0.00
2014-9-21,75.6,68.7,53.9,68.0,58.6,50.0,96,73,41,30.05,29.80,9,2,16,0.03
2014-9-22,65.2,53.1,45.4,50.0,45.8,42.0,97,78,49,30.29,30.06,6,1,9,0.00
2014-9-23,72.3,54.2,40.8,52.0,46.4,40.0,99,79,42,30.38,30.29,3,0,5,0.00
2014-9-24,78.0,54.6,45.6,61.0,50.2,44.0,97,87,43,30.38,30.28,1,0,2,0.00
2014-9-25,79.9,59.9,45.8,61.0,52.7,45.0,100,81,39,30.33,30.20,3,0,4,0.00
2014-9-26,81.4,64.0,51.6,60.0,54.9,51.0,100,77,38,30.27,30.17,3,0,6,0.00
2014-9-27,80.4,64.5,54.0,64.0,56.6,53.0,97,79,44,30.24,30.13,4,0,6,0.00
2014-9-28,83.3,65.8,54.7,68.0,60.5,54.0,98,85,54,30.16,30.03,1,0,4,0.00
2014-9-29,82.7,65.6,54.1,64.0,56.0,50.0,100,77,34,30.03,29.92,4,0,5,0.00
2014-9-30,73.8,60.4,51.2,63.0,55.9,50.0,98,86,66,29.98,29.90,3,1,6,0.00
2014-10-1,78.2,59.2,45.5,62.0,53.2,45.0,98,82,55,30.04,29.96,3,0,4,0.00
2014-10-2,85.1,66.8,53.8,66.0,59.8,52.0,98,80,50,30.02,29.80,3,0,13,0.00
2014-10-3,74.0,64.1,45.1,66.0,58.5,43.0,95,82,64,29.86,29.58,8,2,17,0.30
2014-10-4,49.7,45.4,41.2,43.0,36.2,29.0,94,72,52,29.91,29.82,10,2,19,0.01
2014-10-5,60.3,48.4,39.5,47.0,38.6,34.0,87,71,39,29.91,29.75,7,1,15,0.01
2014-10-6,65.5,52.0,42.8,57.0,49.4,42.0,99,91,71,29.84,29.69,7,1,13,0.31
2014-10-7,63.6,53.6,45.6,58.0,52.1,45.0,99,95,79,29.90,29.74,3,0,8,0.55
2014-10-8,68.0,54.9,45.1,52.0,47.4,44.0,100,80,44,30.09,29.90,8,1,13,0.01
2014-10-9,57.2,50.9,42.7,53.0,48.9,42.0,99,93,77,30.17,30.09,3,0,4,0.00
2014-10-10,53.1,51.3,48.9,52.0,49.8,48.0,97,94,90,30.11,30.05,3,1,7,0.29
2014-10-11,57.9,50.8,43.1,48.0,45.4,40.0,97,83,58,30.20,30.05,4,1,8,0.00
2014-10-12,63.9,52.4,40.7,58.0,47.9,39.0,96,85,69,30.17,29.98,3,0,5,0.31
2014-10-13,75.1,68.4,59.2,68.0,64.0,58.0,99,86,74,29.99,29.73,7,1,14,0.05
2014-10-14,71.4,62.6,55.6,64.0,59.6,52.0,97,90,73,29.74,29.55,6,1,14,1.03
2014-10-15,56.8,54.4,52.9,54.0,52.8,51.0,97,94,89,29.77,29.71,4,0,6,0.06
2014-10-16,62.1,55.9,52.2,56.0,53.5,51.0,98,92,77,29.86,29.73,3,0,10,0.03
2014-10-17,70.6,58.3,50.0,56.0,50.4,47.0,97,77,49,29.84,29.68,7,2,20,0.00
2014-10-18,55.8,50.5,44.9,48.0,45.9,43.0,93,84,74,30.16,29.84,8,1,10,0.04
2014-10-19,57.1,47.7,40.4,44.0,40.8,39.0,97,79,56,30.27,30.07,4,0,8,0.00
2014-10-20,65.5,53.6,41.9,55.0,48.2,41.0,96,83,64,30.07,29.86,12,1,13,0.01
2014-10-21,55.1,50.7,45.5,50.0,44.6,41.0,97,81,60,30.20,29.94,5,1,13,0.00
2014-10-22,55.3,45.8,35.2,44.0,40.1,34.0,97,81,64,30.35,30.20,3,1,7,0.00
2014-10-23,60.8,43.9,30.6,45.0,38.8,30.0,99,85,53,30.30,30.14,1,0,4,0.00
2014-10-24,65.9,49.5,35.6,49.0,42.9,35.0,99,81,44,30.16,30.05,5,0,7,0.00
2014-10-25,74.1,59.5,45.6,60.0,52.7,45.0,98,80,52,30.06,29.92,4,1,12,0.00
2014-10-26,68.4,54.1,37.3,47.0,37.0,29.0,95,57,23,30.04,29.96,5,0,6,0.00
2014-10-27,81.2,64.2,43.4,63.0,53.0,39.0,89,69,45,29.97,29.80,8,1,15,0.00
2014-10-28,70.6,62.4,50.3,63.0,55.9,45.0,95,80,69,30.02,29.84,6,1,13,0.24
2014-10-29,55.2,48.2,37.9,44.0,39.1,36.0,97,72,53,30.16,30.02,9,1,15,0.00
2014-10-30,54.7,44.2,31.8,39.0,35.7,31.0,98,74,51,30.20,30.08,2,0,4,0.00
2014-10-31,45.3,39.0,33.9,42.0,36.5,32.0,94,90,84,30.11,29.96,8,2,17,0.21
2014-11-1,42.8,35.1,26.9,31.0,27.9,24.0,89,76,57,30.41,30.11,10,2,18,0.00
2014-11-2,50.1,32.5,20.1,29.0,23.1,19.0,97,70,31,30.53,30.38,2,0,6,0.00
2014-11-3,63.8,50.6,34.1,30.0,27.6,26.0,80,44,25,30.39,30.21,10,1,12,0.00
2014-11-4,61.9,53.6,49.8,52.0,41.6,29.0,97,67,41,30.21,30.07,10,2,18,0.35
2014-11-5,57.8,48.4,40.1,50.0,43.9,38.0,99,86,48,30.24,30.04,2,0,6,0.00
2014-11-6,51.2,45.8,40.1,51.0,43.0,36.0,98,90,76,30.12,29.88,11,2,21,0.05
2014-11-7,44.9,37.7,31.0,36.0,32.5,29.0,94,82,61,30.25,30.03,6,1,9,0.00
2014-11-8,53.2,42.4,32.5,41.0,35.3,30.0,91,77,59,30.05,29.88,8,1,14,0.00
2014-11-9,52.4,41.4,29.6,33.0,31.5,28.0,96,70,42,30.07,29.94,7,1,11,0.00
2014-11-10,62.5,50.0,34.1,39.0,33.9,31.0,91,58,36,29.99,29.78,7,1,14,0.00
2014-11-11,62.2,50.4,35.0,54.0,41.6,32.0,96,74,46,30.09,29.78,18,2,18,0.15
2014-11-12,35.5,32.8,28.9,31.0,26.7,22.0,89,78,71,30.33,30.09,9,1,12,0.00
2014-11-13,28.8,25.6,18.4,23.0,18.4,14.0,87,74,61,30.39,30.30,8,2,12,0.00
2014-11-14,32.6,23.0,15.7,21.0,16.0,14.0,95,76,47,30.46,30.37,3,0,12,0.00
2014-11-15,36.8,25.4,12.3,25.0,17.5,11.0,96,74,47,30.51,30.29,3,0,6,0.00
2014-11-16,36.8,32.5,29.5,34.0,30.0,24.0,97,90,76,30.30,29.94,2,0,6,0.02
2014-11-17,32.3,23.5,13.4,32.0,19.8,8.0,97,86,69,30.15,29.85,7,1,13,0.00
2014-11-18,22.2,16.2,9.8,12.0,8.6,5.0,80,72,62,30.35,30.14,8,2,16,0.00
2014-11-19,40.4,27.1,11.6,29.0,19.3,7.0,84,73,59,30.34,29.95,12,3,22,0.19
2014-11-20,30.7,24.7,18.8,18.0,16.2,13.0,83,70,58,30.34,30.14,7,2,14,0.00
2014-11-21,33.2,22.4,9.5,16.0,12.4,7.0,91,67,44,30.59,30.34,3,0,6,0.00
2014-11-22,58.9,46.0,28.9,44.0,34.5,14.0,86,66,52,30.42,30.06,7,1,14,0.03
2014-11-23,60.5,53.5,49.6,56.0,47.0,36.0,97,80,54,30.06,29.24,8,2,15,1.17
2014-11-24,59.8,48.1,35.7,56.0,43.5,30.0,96,84,74,29.93,29.24,14,4,24,0.30
2014-11-25,39.2,33.6,26.3,32.0,28.7,24.0,90,82,72,30.24,29.93,7,1,12,0.00
2014-11-26,37.0,29.7,21.9,29.0,26.0,21.0,97,86,71,30.23,30.08,1,0,4,0.00
2014-11-27,30.7,28.0,24.9,27.0,23.5,20.0,88,83,75,30.45,30.13,6,1,13,0.00
2014-11-28,33.7,28.8,24.4,23.0,21.0,18.0,88,73,56,30.46,30.11,4,1,7,0.00
2014-11-29,55.0,44.3,33.0,50.0,36.5,23.0,86,74,64,30.12,29.87,8,2,15,0.00
2014-11-30,64.3,59.8,52.1,57.0,54.4,50.0,95,82,73,30.11,29.88,10,3,20,0.10
2014-12-1,50.9,35.5,28.4,49.0,32.1,21.0,96,87,74,30.56,30.12,6,1,10,0.22
2014-12-2,34.7,31.6,28.2,34.0,28.4,21.0,96,88,74,30.52,30.20,5,1,10,0.01
2014-12-3,39.4,32.2,23.6,34.0,30.1,23.0,97,92,77,30.43,30.20,7,1,11,0.04
2014-12-4,35.0,31.3,23.6,33.0,29.8,23.0,98,94,83,30.46,30.31,3,0,5,0.03
2014-12-5,44.4,39.3,34.1,44.0,38.9,33.0,99,98,96,30.31,30.08,2,0,5,1.09
2014-12-6,44.0,39.2,33.6,44.0,36.7,28.0,99,91,76,30.59,30.07,11,2,15,0.82
2014-12-7,41.6,34.2,27.8,32.0,28.6,25.0,90,80,66,30.64,30.39,6,1,11,0.00
2014-12-8,46.8,39.4,33.2,40.0,34.4,29.0,93,82,71,30.38,30.12,8,1,10,0.03
2014-12-9,40.8,37.2,34.4,39.0,35.4,33.0,96,93,86,30.30,30.10,5,1,11,0.05
2014-12-10,36.1,33.2,29.6,33.0,28.7,25.0,91,83,77,30.34,30.25,4,1,8,0.00
2014-12-11,38.3,31.1,26.2,29.0,25.9,24.0,93,81,67,30.32,30.22,12,1,12,0.00
2014-12-12,40.1,31.9,24.9,34.0,29.1,23.0,94,89,71,30.41,30.30,6,2,15,0.00
2014-12-13,44.9,40.2,35.0,39.0,36.4,33.0,91,86,80,30.36,30.21,3,1,8,0.00
2014-12-14,45.4,42.9,41.1,43.0,40.4,38.0,94,91,83,30.23,30.14,3,0,5,0.00
2014-12-15,46.1,42.9,40.0,43.0,39.0,37.0,96,86,76,30.14,29.79,5,1,8,0.12
2014-12-16,48.6,41.9,32.3,48.0,40.6,31.0,98,95,90,30.16,29.72,12,3,17,0.25
2014-12-17,32.2,28.2,24.0,31.0,25.3,20.0,95,89,86,30.34,30.17,6,2,15,0.00
2014-12-18,27.9,25.7,24.0,24.0,22.0,20.0,90,86,82,30.36,30.27,2,0,4,0.00
2014-12-19,30.2,27.5,23.5,25.0,23.2,20.0,91,83,78,30.36,30.30,2,0,6,0.00
2014-12-20,31.5,30.0,28.4,27.0,26.1,24.0,89,85,82,30.35,30.30,1,0,2,0.00
2014-12-21,38.2,28.4,19.3,30.0,24.9,18.0,97,87,72,30.36,30.15,3,0,6,0.00
2014-12-22,47.5,39.1,24.5,44.0,34.8,23.0,97,85,75,30.15,29.74,5,0,5,0.00
2014-12-23,55.0,51.7,47.2,54.0,50.9,45.0,99,97,91,29.83,29.66,3,0,7,0.17
2014-12-24,54.8,46.8,37.3,55.0,45.8,35.0,99,96,87,29.74,29.39,9,2,18,0.29
2014-12-25,40.6,36.2,31.4,36.0,33.3,30.0,95,89,78,30.22,29.75,8,2,15,0.01
2014-12-26,52.7,40.6,31.8,42.0,36.1,31.0,97,85,64,30.27,30.18,7,1,13,0.01
2014-12-27,47.0,43.0,33.8,46.0,41.3,33.0,98,93,81,30.22,30.08,7,1,10,0.34
2014-12-28,40.6,32.9,26.9,40.0,30.7,26.0,97,91,84,30.27,30.06,4,0,9,0.09
2014-12-29,34.6,28.2,23.7,27.0,24.4,22.0,97,86,72,30.45,30.26,4,1,8,0.00
2014-12-30,32.0,26.2,19.7,22.0,20.0,15.0,89,78,61,30.63,30.42,6,1,9,0.00
2014-12-31,24.8,18.4,10.6,14.0,8.6,6.0,84,67,49,30.65,30.39,6,1,11,0.00
2015-1-1,35.7,27.3,19.7,24.0,17.3,10.0,79,67,55,30.39,30.16,12,2,17,0.00
2015-1-2,38.4,33.2,26.5,32.0,28.3,23.0,91,82,69,30.40,30.26,4,0,5,0.00